Time;durP1;ratioP1;P1;durP2;ratioP2;P2;SDS_P1;SDS_P2;PMS_P1;PMS_P2;Temp;Humidity;BMP_temperature;BMP_pressure;BME280_temperature;BME280_humidity;BME280_pressure;Samples;Min_cycle;Max_cycle;Signal;HPM_P1;HPM_P2
2022/11/07 00:00:08;;;;;;;1.05;1.05;;;;;;;12.38;66.48;100178.91;4343596;33;32551;-86
2022/11/07 00:02:37;;;;;;;3.57;3.30;;;;;;;12.24;67.22;100178.69;4341915;33;32298;-85
2022/11/07 00:05:06;;;;;;;2.80;2.60;;;;;;;12.23;67.29;100176.97;4343960;33;34097;-85
2022/11/07 00:07:34;;;;;;;9.00;2.97;;;;;;;12.19;67.29;100176.25;4345313;33;33213;-85
2022/11/07 00:10:04;;;;;;;5.55;3.25;;;;;;;12.18;67.26;100174.53;4341495;33;33647;-85
2022/11/07 00:12:35;;;;;;;2.37;1.75;;;;;;;12.23;67.19;100176.97;4350653;32;32437;-85
2022/11/07 00:15:04;;;;;;;8.95;4.30;;;;;;;12.21;67.15;100176.19;4345036;33;33787;-85
2022/11/07 00:17:33;;;;;;;5.10;3.35;;;;;;;12.30;66.91;100175.78;4345970;33;32632;-85
2022/11/07 00:20:00;;;;;;;2.53;2.22;;;;;;;12.19;66.93;100181.53;4339295;33;33056;-85
2022/11/07 00:22:28;;;;;;;3.55;2.70;;;;;;;12.12;67.21;100184.53;4345887;33;33282;-85
2022/11/07 00:24:57;;;;;;;5.72;4.22;;;;;;;12.27;66.94;100195.31;4344257;33;34236;-85
2022/11/07 00:27:26;;;;;;;4.50;2.40;;;;;;;12.24;67.15;100195.44;4344956;33;32181;-85
2022/11/07 00:29:58;;;;;;;1.35;1.35;;;;;;;12.13;67.59;100192.41;4343075;33;33989;-85
2022/11/07 00:32:27;;;;;;;2.87;2.10;;;;;;;12.09;67.89;100195.25;4345789;33;34701;-85
2022/11/07 00:34:54;;;;;;;1.77;1.67;;;;;;;12.21;67.50;100200.03;4350456;32;33760;-85
2022/11/07 00:37:23;;;;;;;1.85;1.75;;;;;;;12.25;67.44;100201.59;4332361;33;32902;-85
2022/11/07 00:39:52;;;;;;;4.03;2.12;;;;;;;12.26;67.41;100203.31;4335725;33;33292;-85
2022/11/07 00:42:20;;;;;;;6.53;2.78;;;;;;;12.23;67.64;100200.81;4333224;33;34520;-85
2022/11/07 00:44:47;;;;;;;6.22;2.85;;;;;;;12.19;67.86;100196.56;4336330;33;33634;-85
2022/11/07 00:47:17;;;;;;;1.20;1.20;;;;;;;12.33;67.46;100194.16;4331210;33;33458;-85
2022/11/07 00:49:45;;;;;;;2.12;1.95;;;;;;;12.42;67.29;100192.91;4332199;33;34561;-87
2022/11/07 00:52:14;;;;;;;1.65;1.55;;;;;;;12.37;67.44;100193.09;4337536;33;33215;-84
2022/11/07 00:54:42;;;;;;;3.72;3.05;;;;;;;12.33;67.57;100188.88;4337559;33;33023;-84
2022/11/07 00:57:09;;;;;;;6.30;2.62;;;;;;;12.28;67.86;100193.50;4335902;33;34100;-85
2022/11/07 00:59:37;;;;;;;2.67;1.65;;;;;;;12.32;67.76;100195.09;4330848;33;32736;-84
2022/11/07 01:02:06;;;;;;;2.20;2.05;;;;;;;12.42;67.58;100192.91;4337530;33;32632;-84
2022/11/07 01:07:20;;;;;;;1.42;0.95;;;;;;;12.43;67.69;100194.59;4338179;33;33347;-85
2022/11/07 01:09:53;;;;;;;1.30;1.27;;;;;;;12.53;67.42;100190.59;4330562;33;33168;-85
2022/11/07 01:12:21;;;;;;;2.28;2.17;;;;;;;12.54;67.40;100198.50;4332133;33;32596;-85
2022/11/07 01:14:48;;;;;;;1.58;1.48;;;;;;;12.45;67.65;100195.41;4335196;33;34598;-85
2022/11/07 01:17:16;;;;;;;1.48;1.25;;;;;;;12.54;67.47;100203.81;4332522;33;33391;-84
2022/11/07 01:19:44;;;;;;;4.18;2.95;;;;;;;12.38;68.00;100201.91;4335279;33;33530;-84
2022/11/07 01:22:11;;;;;;;1.95;1.00;;;;;;;12.82;66.50;100202.53;4332456;33;34761;-84
2022/11/07 01:24:39;;;;;;;4.50;2.00;;;;;;;12.82;66.22;100194.59;4331706;33;33625;-84
2022/11/07 01:27:07;;;;;;;1.85;1.75;;;;;;;12.68;66.52;100192.59;4332450;33;32954;-83
2022/11/07 01:29:36;;;;;;;3.20;1.90;;;;;;;12.47;67.45;100186.47;4332388;33;33848;-83
2022/11/07 01:32:05;;;;;;;1.67;1.58;;;;;;;12.50;67.77;100190.78;4331816;33;34052;-83
2022/11/07 01:34:33;;;;;;;0.95;0.95;;;;;;;12.54;67.76;100185.25;4330600;33;33506;-83
2022/11/07 01:37:00;;;;;;;2.42;2.20;;;;;;;12.40;68.31;100194.78;4341531;33;33387;-83
2022/11/07 01:39:32;;;;;;;6.70;2.20;;;;;;;12.53;68.05;100188.84;4342515;33;33137;-83
2022/11/07 01:42:00;;;;;;;1.55;1.45;;;;;;;12.49;68.36;100195.22;4341335;32;34538;-83
2022/11/07 01:44:27;;;;;;;0.93;0.93;;;;;;;12.53;68.26;100191.50;4342826;33;33641;-84
2022/11/07 01:46:56;;;;;;;2.95;1.95;;;;;;;12.55;68.36;100194.94;4343288;33;31683;-83
2022/11/07 01:49:34;;;;;;;1.62;1.52;;;;;;;12.73;67.62;100198.53;4342476;33;32729;-86
2022/11/07 01:52:33;;;;;;;2.15;1.95;;;;;;;12.83;67.35;100204.25;4341312;33;33686;-88
2022/11/07 01:55:08;;;;;;;1.85;1.75;;;;;;;12.95;66.90;100203.66;4332387;33;32694;-87
2022/11/07 01:57:57;;;;;;;2.95;2.33;;;;;;;12.77;67.61;100204.53;4343173;33;33677;-86
2022/11/07 02:00:26;;;;;;;1.42;0.98;;;;;;;12.80;67.78;100199.09;4342700;33;33188;-85
2022/11/07 02:02:58;;;;;;;2.30;1.85;;;;;;;12.70;68.20;100197.81;4341753;33;33474;-86
2022/11/07 02:05:48;;;;;;;0.37;0.37;;;;;;;12.80;68.12;100199.94;4330560;33;32502;-85
2022/11/07 02:08:16;;;;;;;3.12;1.00;;;;;;;12.78;68.26;100209.78;4329509;33;33433;-85
2022/11/07 02:10:45;;;;;;;1.50;1.40;;;;;;;12.78;68.09;100206.25;4340906;33;34082;-85
2022/11/07 02:13:18;;;;;;;2.12;1.60;;;;;;;12.70;68.45;100211.91;4342440;33;33984;-84
2022/11/07 02:15:47;;;;;;;3.45;3.15;;;;;;;12.98;67.62;100203.53;4340830;33;34337;-84
2022/11/07 02:18:15;;;;;;;5.22;2.03;;;;;;;13.23;66.44;100197.09;4330639;33;32608;-84
2022/11/07 02:20:44;;;;;;;5.18;1.80;;;;;;;13.11;66.61;100197.66;4342948;33;33353;-84
2022/11/07 02:23:20;;;;;;;5.55;2.08;;;;;;;12.88;67.68;100201.41;4342090;33;34026;-85
2022/11/07 02:25:47;;;;;;;1.62;1.27;;;;;;;12.89;67.97;100203.97;4341269;33;34489;-85
2022/11/07 02:28:15;;;;;;;1.77;1.67;;;;;;;12.84;68.24;100211.28;4324422;33;32026;-84
2022/11/07 02:30:43;;;;;;;2.60;2.40;;;;;;;12.79;68.31;100202.69;4338808;33;32787;-85
2022/11/07 02:33:19;;;;;;;1.10;0.43;;;;;;;12.86;68.43;100198.78;4342547;33;33674;-86
2022/11/07 02:35:49;;;;;;;1.52;1.42;;;;;;;12.88;68.12;100202.25;4343018;33;33470;-85
2022/11/07 02:38:34;;;;;;;5.72;2.40;;;;;;;12.91;68.22;100196.78;4341882;33;33177;-86
2022/11/07 02:41:13;;;;;;;1.80;1.70;;;;;;;12.91;68.42;100196.78;4343067;33;32640;-85
2022/11/07 02:43:48;;;;;;;2.28;1.60;;;;;;;12.95;68.03;100198.38;4342704;33;33072;-85
2022/11/07 02:46:17;;;;;;;0.60;0.60;;;;;;;13.11;67.74;100187.06;4342190;33;33631;-84
2022/11/07 02:48:48;;;;;;;1.30;1.30;;;;;;;13.17;67.13;100181.44;4340233;33;32793;-84
2022/11/07 02:51:16;;;;;;;2.03;1.75;;;;;;;13.01;67.95;100187.50;4331107;33;32829;-84
2022/11/07 02:53:45;;;;;;;2.05;1.95;;;;;;;13.03;67.98;100190.91;4336177;33;33832;-84
2022/11/07 02:56:14;;;;;;;2.28;1.30;;;;;;;12.95;68.25;100197.50;4342465;33;33571;-83
2022/11/07 02:58:41;;;;;;;1.75;1.65;;;;;;;12.97;68.40;100198.31;4337354;33;31742;-83
2022/11/07 03:01:11;;;;;;;5.15;1.12;;;;;;;12.98;68.28;100190.28;4341694;33;33579;-83
2022/11/07 03:03:45;;;;;;;2.87;1.50;;;;;;;12.98;68.47;100186.78;4330926;33;33973;-84
2022/11/07 03:06:17;;;;;;;2.95;2.62;;;;;;;12.98;68.43;100187.62;4334922;33;33478;-83
2022/11/07 03:08:44;;;;;;;1.50;1.40;;;;;;;13.05;68.44;100186.41;4342182;33;32997;-84
2022/11/07 03:11:13;;;;;;;6.22;1.15;;;;;;;13.06;68.44;100188.12;4330755;33;33584;-84
2022/11/07 03:13:40;;;;;;;2.08;1.98;;;;;;;13.10;68.46;100186.16;4342421;33;32241;-84
2022/11/07 03:16:09;;;;;;;1.80;1.70;;;;;;;13.05;68.68;100188.19;4341993;33;32947;-84
2022/11/07 03:18:39;;;;;;;1.75;1.65;;;;;;;13.15;68.43;100193.91;4335194;33;33076;-84
2022/11/07 03:21:07;;;;;;;1.45;1.35;;;;;;;13.13;68.60;100185.19;4339821;33;34032;-84
2022/11/07 03:23:35;;;;;;;0.95;0.95;;;;;;;13.26;67.96;100184.53;4334468;33;33356;-84
2022/11/07 03:26:04;;;;;;;2.30;2.10;;;;;;;13.22;68.34;100195.38;4336509;33;34329;-84
2022/11/07 03:28:32;;;;;;;2.30;2.15;;;;;;;13.22;68.43;100198.03;4342976;33;32541;-84
2022/11/07 03:31:02;;;;;;;1.90;1.80;;;;;;;13.22;68.45;100196.22;4341573;33;34105;-85
2022/11/07 03:33:30;;;;;;;2.17;1.80;;;;;;;13.18;68.75;100199.94;4340548;33;34680;-84
2022/11/07 03:35:58;;;;;;;4.15;1.62;;;;;;;13.21;68.63;100196.28;4341062;33;32917;-85
2022/11/07 03:38:26;;;;;;;3.70;2.40;;;;;;;13.33;68.36;100191.25;4333303;33;33512;-83
2022/11/07 03:40:53;;;;;;;2.78;2.00;;;;;;;13.32;68.47;100192.19;4342674;33;33964;-84
2022/11/07 03:43:21;;;;;;;1.90;1.27;;;;;;;13.33;68.53;100190.41;4342244;33;32445;-84
2022/11/07 03:45:50;;;;;;;3.50;1.42;;;;;;;13.40;68.35;100191.84;4342476;33;34584;-84
2022/11/07 03:48:17;;;;;;;5.78;2.70;;;;;;;13.45;68.11;100196.91;4340733;33;31911;-84
2022/11/07 03:50:45;;;;;;;0.70;0.70;;;;;;;13.42;68.26;100197.06;4340924;33;35190;-84
2022/11/07 03:53:14;;;;;;;1.55;1.45;;;;;;;13.39;68.50;100194.53;4334438;33;33453;-84
2022/11/07 03:55:54;;;;;;;1.30;1.20;;;;;;;13.46;68.35;100198.62;4341373;33;33902;-84
2022/11/07 03:58:23;;;;;;;3.37;2.78;;;;;;;13.49;68.14;100199.34;4339103;33;33810;-84
2022/11/07 04:00:51;;;;;;;9.85;2.95;;;;;;;13.45;68.44;100200.44;4338500;33;34691;-84
2022/11/07 04:03:20;;;;;;;1.70;1.60;;;;;;;13.35;68.82;100207.13;4336452;33;32292;-84
2022/11/07 04:05:47;;;;;;;3.20;2.90;;;;;;;13.33;68.82;100208.97;4339786;33;32589;-85
2022/11/07 04:08:15;;;;;;;2.83;2.62;;;;;;;13.43;68.75;100215.53;4342734;33;34138;-85
2022/11/07 04:10:45;;;;;;;2.03;1.65;;;;;;;13.42;68.76;100213.81;4337013;33;34286;-85
2022/11/07 04:17:17;;;;;;;1.98;1.80;;;;;;;13.43;68.83;100223.50;4340461;33;32759;-85
2022/11/07 04:18:56;;;;;;;1.77;1.67;;;;;;;13.60;68.37;100224.47;4341640;33;32602;-85
2022/11/07 04:21:25;;;;;;;1.52;1.42;;;;;;;13.62;68.31;100214.63;4336894;33;33676;-86
2022/11/07 04:23:54;;;;;;;3.22;1.60;;;;;;;13.76;67.78;100212.16;4327311;33;35850;-86
2022/11/07 04:29:10;;;;;;;7.15;2.60;;;;;;;13.60;68.09;100216.53;4340884;33;33590;-86
2022/11/07 04:31:37;;;;;;;2.12;1.80;;;;;;;13.54;68.45;100202.63;4342265;33;32663;-86
2022/11/07 04:34:06;;;;;;;1.58;1.48;;;;;;;13.64;68.29;100218.94;4340403;33;34493;-86
2022/11/07 04:36:35;;;;;;;1.10;1.00;;;;;;;13.62;68.32;100204.88;4339006;33;32892;-86
2022/11/07 04:39:02;;;;;;;3.40;2.28;;;;;;;13.66;68.15;100206.44;4341154;33;33410;-87
2022/11/07 04:41:30;;;;;;;3.25;2.40;;;;;;;13.66;68.25;100206.44;4340989;33;32732;-87
2022/11/07 04:43:58;;;;;;;3.67;2.08;;;;;;;13.67;68.14;100196.69;4339305;33;33931;-88
2022/11/07 04:46:26;;;;;;;3.92;1.87;;;;;;;13.72;67.90;100199.97;4341922;33;33510;-85
2022/11/07 04:48:56;;;;;;;2.60;2.40;;;;;;;13.61;68.30;100197.00;4337186;33;33399;-85
2022/11/07 04:51:24;;;;;;;4.32;1.67;;;;;;;13.55;68.44;100199.03;4344030;33;33161;-84
2022/11/07 04:53:53;;;;;;;2.22;2.03;;;;;;;13.60;68.32;100201.47;4342665;33;34018;-85
2022/11/07 04:56:24;;;;;;;1.62;1.52;;;;;;;13.73;68.00;100196.41;4334458;33;32475;-84
2022/11/07 04:58:56;;;;;;;;;;;;;;;13.70;67.98;100207.16;4339206;33;34053;-85
2022/11/07 05:01:24;;;;;;;2.35;2.15;;;;;;;13.76;67.65;100205.03;4331125;33;32703;-84
2022/11/07 05:03:52;;;;;;;3.55;1.85;;;;;;;13.65;67.85;100204.72;4342721;33;33155;-84
2022/11/07 05:06:20;;;;;;;1.80;1.58;;;;;;;13.60;67.91;100212.06;4342769;33;32318;-84
2022/11/07 05:08:49;;;;;;;1.42;1.33;;;;;;;13.50;68.09;100206.34;4344449;33;33821;-84
2022/11/07 05:11:17;;;;;;;3.47;1.35;;;;;;;13.60;67.64;100205.91;4343919;33;35121;-85
2022/11/07 05:13:45;;;;;;;0.80;0.80;;;;;;;13.45;68.04;100213.69;4342686;33;33131;-84
2022/11/07 05:16:18;;;;;;;2.90;2.47;;;;;;;13.49;67.95;100212.59;4342710;33;34830;-85
2022/11/07 05:18:45;;;;;;;1.30;1.20;;;;;;;13.48;67.99;100213.53;4342393;33;33259;-84
2022/11/07 05:21:15;;;;;;;0.37;0.37;;;;;;;13.48;67.95;100213.53;4344069;33;33712;-85
2022/11/07 05:23:43;;;;;;;0.73;0.73;;;;;;;13.52;67.70;100211.56;4342038;32;32405;-85
2022/11/07 05:26:14;;;;;;;2.25;1.75;;;;;;;13.50;67.76;100213.47;4337273;33;33532;-85
2022/11/07 05:28:42;;;;;;;2.45;1.62;;;;;;;13.49;67.76;100206.44;4342525;33;31832;-85
2022/11/07 05:31:15;;;;;;;2.97;1.48;;;;;;;13.55;67.54;100209.63;4344486;33;33025;-85
2022/11/07 05:33:48;;;;;;;3.08;2.83;;;;;;;13.51;67.70;100212.53;4339697;33;35156;-85
2022/11/07 05:36:18;;;;;;;1.17;1.08;;;;;;;13.51;67.66;100213.37;4333635;33;33927;-85
2022/11/07 05:38:50;;;;;;;1.35;1.27;;;;;;;13.32;68.24;100208.09;4343387;33;32824;-85
2022/11/07 05:41:19;;;;;;;1.80;1.20;;;;;;;13.63;67.26;100217.22;4343932;33;34359;-85
2022/11/07 05:43:48;;;;;;;3.53;3.28;;;;;;;13.45;67.83;100219.00;4341830;33;33757;-85
2022/11/07 05:46:16;;;;;;;1.17;0.93;;;;;;;13.78;66.58;100231.53;4344054;33;33846;-85
2022/11/07 05:48:44;;;;;;;14.82;3.00;;;;;;;13.68;66.65;100246.19;4343565;33;32858;-85
2022/11/07 05:51:13;;;;;;;2.25;1.90;;;;;;;13.43;67.86;100241.22;4338683;33;33633;-86
2022/11/07 05:53:41;;;;;;;2.22;1.70;;;;;;;13.43;68.05;100249.16;4341566;33;34043;-86
2022/11/07 05:56:10;;;;;;;6.28;2.85;;;;;;;13.45;68.13;100257.94;4337942;32;32038;-86
2022/11/07 05:58:43;;;;;;;1.52;1.45;;;;;;;13.45;68.08;100261.44;4339561;33;32823;-87
2022/11/07 06:01:12;;;;;;;1.62;1.52;;;;;;;13.52;68.02;100260.19;4342558;33;33971;-87
2022/11/07 06:03:44;;;;;;;1.67;1.33;;;;;;;13.44;68.19;100262.38;4341335;33;34793;-87
2022/11/07 06:06:12;;;;;;;3.28;2.35;;;;;;;13.49;68.14;100267.47;4344676;32;33754;-87
2022/11/07 06:08:41;;;;;;;2.87;2.67;;;;;;;13.34;68.70;100271.72;4341525;33;32588;-87
2022/11/07 06:11:11;;;;;;;2.25;1.67;;;;;;;13.41;68.70;100273.12;4342853;33;33321;-87
2022/11/07 06:13:39;;;;;;;3.20;2.92;;;;;;;13.60;68.09;100269.59;4330133;33;34290;-86
2022/11/07 06:16:08;;;;;;;2.97;2.65;;;;;;;13.56;68.19;100272.38;4342903;32;34173;-86
2022/11/07 06:18:39;;;;;;;2.15;2.05;;;;;;;13.53;68.10;100279.62;4338133;33;33951;-87
2022/11/07 06:21:08;;;;;;;1.37;1.27;;;;;;;13.61;67.94;100289.88;4337386;33;33815;-87
2022/11/07 06:23:40;;;;;;;2.17;1.15;;;;;;;13.48;68.34;100295.78;4340332;33;32976;-87
2022/11/07 06:26:09;;;;;;;;;;;;;;;13.53;68.38;100306.16;4342663;33;33927;-87
2022/11/07 06:28:37;;;;;;;1.55;1.48;;;;;;;13.80;67.43;100303.97;4330870;33;32126;-87
2022/11/07 06:31:05;;;;;;;7.32;2.05;;;;;;;13.64;68.10;100310.97;4332502;33;32977;-87
2022/11/07 06:33:33;;;;;;;0.65;0.65;;;;;;;13.57;68.30;100321.84;4337041;33;33067;-86
2022/11/07 06:36:11;;;;;;;1.65;1.55;;;;;;;13.68;68.06;100331.13;4328664;33;35472;-87
2022/11/07 06:38:40;;;;;;;0.95;0.93;;;;;;;13.53;68.85;100327.38;4342071;33;31975;-88
2022/11/07 06:41:12;;;;;;;4.07;1.77;;;;;;;13.50;69.12;100328.41;4337826;33;33845;-87
2022/11/07 06:43:41;;;;;;;;;;;;;;;13.57;69.18;100329.81;4334764;33;33957;-87
2022/11/07 06:46:13;;;;;;;2.37;2.15;;;;;;;13.49;69.41;100321.38;4327434;33;35273;-88
2022/11/07 06:48:41;;;;;;;5.47;2.72;;;;;;;13.63;69.09;100328.69;4342822;33;33210;-88
2022/11/07 06:51:14;;;;;;;3.90;2.00;;;;;;;13.84;68.50;100329.44;4343672;33;33681;-88
2022/11/07 06:53:42;;;;;;;1.20;0.85;;;;;;;13.92;68.32;100329.91;4343419;33;35504;-87
2022/11/07 06:56:14;;;;;;;1.33;1.23;;;;;;;13.80;68.85;100330.50;4337727;33;35231;-87
2022/11/07 06:58:49;;;;;;;1.52;1.45;;;;;;;13.87;68.88;100337.25;4343119;33;33468;-88
2022/11/07 07:01:18;;;;;;;2.92;2.37;;;;;;;13.97;68.67;100333.22;4342980;32;34223;-86
2022/11/07 07:03:47;;;;;;;4.87;2.35;;;;;;;13.96;68.74;100331.50;4343882;32;33153;-88
2022/11/07 07:06:17;;;;;;;1.73;1.27;;;;;;;14.18;67.89;100327.75;4342616;33;33901;-88
2022/11/07 07:08:46;;;;;;;2.92;2.67;;;;;;;14.09;68.41;100332.59;4341292;33;32792;-88
2022/11/07 07:11:14;;;;;;;3.25;2.25;;;;;;;14.23;67.92;100333.69;4343804;33;33611;-88
2022/11/07 07:13:42;;;;;;;3.08;2.80;;;;;;;14.29;67.70;100336.91;4342176;33;33866;-88
2022/11/07 07:16:11;;;;;;;11.00;2.75;;;;;;;14.53;66.69;100336.66;4335280;33;33628;-87
2022/11/07 07:18:44;;;;;;;3.12;2.17;;;;;;;14.59;66.40;100341.63;4341468;33;32177;-87
2022/11/07 07:21:13;;;;;;;4.22;3.37;;;;;;;14.48;66.65;100347.50;4342161;33;32905;-87
2022/11/07 07:23:42;;;;;;;0.98;0.98;;;;;;;14.14;68.15;100344.78;4339581;33;34390;-88
2022/11/07 07:26:22;;;;;;;2.42;2.30;;;;;;;13.97;68.73;100346.47;4329858;33;32527;-87
2022/11/07 07:28:50;;;;;;;0.90;0.90;;;;;;;14.15;68.44;100349.16;4342011;33;32735;-87
2022/11/07 07:31:22;;;;;;;1.35;1.35;;;;;;;14.54;67.22;100339.22;4341550;33;32839;-87
2022/11/07 07:33:51;;;;;;;1.42;1.33;;;;;;;14.64;66.70;100344.06;4342984;32;33976;-87
2022/11/07 07:36:24;;;;;;;3.35;2.87;;;;;;;14.45;66.97;100344.97;4342310;32;34288;-87
2022/11/07 07:38:54;;;;;;;1.10;1.08;;;;;;;14.69;66.19;100345.53;4336219;33;33198;-89
2022/11/07 07:41:25;;;;;;;2.70;2.30;;;;;;;14.68;66.04;100345.63;4342849;33;33642;-89
2022/11/07 07:43:53;;;;;;;4.07;3.03;;;;;;;14.64;66.47;100346.72;4342197;33;34895;-88
2022/11/07 07:46:23;;;;;;;8.52;1.40;;;;;;;14.62;66.43;100352.09;4330999;33;34375;-88
2022/11/07 07:49:42;;;;;;;2.42;1.80;;;;;;;14.80;65.42;100352.94;4343037;33;32519;-88
2022/11/07 07:52:10;;;;;;;2.50;2.37;;;;;;;14.41;66.74;100362.00;4334359;33;32799;-89
2022/11/07 07:54:42;;;;;;;3.03;2.03;;;;;;;14.02;67.71;100356.88;4327455;33;33880;-89
2022/11/07 07:57:11;;;;;;;;;;;;;;;14.27;67.18;100364.47;4343129;33;34113;-88
2022/11/07 07:59:45;;;;;;;1.40;1.30;;;;;;;14.18;67.70;100359.63;4329917;33;33571;-89
2022/11/07 08:02:19;;;;;;;10.07;2.22;;;;;;;14.22;67.20;100358.53;4339020;33;34007;-88
2022/11/07 08:04:50;;;;;;;3.50;2.22;;;;;;;14.20;67.62;100355.97;4343604;33;33987;-89
2022/11/07 08:07:19;;;;;;;1.73;1.23;;;;;;;14.16;66.98;100361.50;4338933;33;34649;-89
2022/11/07 08:09:47;;;;;;;2.72;2.00;;;;;;;14.39;66.26;100358.56;4340147;33;32292;-89
2022/11/07 08:12:17;;;;;;;3.78;2.75;;;;;;;14.20;66.65;100355.13;4343077;33;34192;-89
2022/11/07 08:14:45;;;;;;;2.47;2.28;;;;;;;14.32;66.52;100359.81;4343005;33;34730;-89
2022/11/07 08:17:14;;;;;;;2.35;1.77;;;;;;;14.34;66.39;100352.63;4340619;33;32931;-89
2022/11/07 08:19:48;;;;;;;0.47;0.47;;;;;;;14.47;66.21;100359.00;4330894;33;32566;-89
2022/11/07 08:22:16;;;;;;;1.20;1.00;;;;;;;14.42;66.90;100355.72;4341015;33;33005;-89
2022/11/07 08:24:45;;;;;;;4.55;2.55;;;;;;;14.45;66.86;100344.09;4338705;33;34396;-89
2022/11/07 08:27:14;;;;;;;3.80;1.33;;;;;;;14.65;65.97;100351.94;4343370;33;32847;-89
2022/11/07 08:29:42;;;;;;;2.70;2.53;;;;;;;14.41;67.03;100350.50;4331023;33;31563;-88
2022/11/07 08:32:12;;;;;;;2.15;2.05;;;;;;;14.60;66.00;100354.84;4344108;33;33843;-90
2022/11/07 08:34:41;;;;;;;7.72;1.27;;;;;;;14.78;65.11;100354.81;4342434;33;32707;-90
2022/11/07 08:37:14;;;;;;;2.05;1.90;;;;;;;14.48;65.65;100355.47;4342975;33;32784;-89
2022/11/07 08:39:46;;;;;;;0.90;0.90;;;;;;;14.74;65.07;100342.63;4330604;33;32165;-89
2022/11/07 08:42:15;;;;;;;3.28;1.52;;;;;;;14.81;64.86;100352.00;4331271;33;32132;-90
2022/11/07 08:44:43;;;;;;;0.88;0.88;;;;;;;14.92;64.81;100344.31;4343135;33;33492;-90
2022/11/07 08:47:11;;;;;;;2.58;2.42;;;;;;;15.10;64.32;100343.34;4343540;33;33691;-90
2022/11/07 08:49:41;;;;;;;3.58;2.33;;;;;;;14.86;64.84;100349.97;4333219;33;32583;-90
2022/11/07 08:52:16;;;;;;;5.20;1.00;;;;;;;15.02;64.55;100350.00;4332766;33;33294;-91
2022/11/07 08:54:45;;;;;;;1.62;1.52;;;;;;;15.07;64.20;100346.16;4330968;33;33067;-91
2022/11/07 08:57:15;;;;;;;2.55;2.08;;;;;;;14.90;65.54;100358.63;4343481;33;32724;-90
2022/11/07 08:59:45;;;;;;;5.73;1.77;;;;;;;14.88;64.72;100356.06;4331032;33;32065;-90
2022/11/07 09:02:14;;;;;;;2.25;2.08;;;;;;;14.92;64.45;100362.94;4343380;33;32770;-90
2022/11/07 09:05:03;;;;;;;2.97;2.55;;;;;;;14.82;64.54;100367.03;4328785;33;33594;-89
2022/11/07 09:07:38;;;;;;;3.00;2.28;;;;;;;15.09;64.24;100362.87;4342561;33;33149;-90
2022/11/07 09:10:07;;;;;;;1.15;1.05;;;;;;;15.16;64.22;100365.25;4343678;33;33475;-90
2022/11/07 09:12:36;;;;;;;2.97;2.72;;;;;;;15.19;64.69;100365.94;4345895;33;33720;-91
2022/11/07 09:15:31;;;;;;;1.35;1.25;;;;;;;15.06;63.65;100372.84;4341874;33;34182;-90
2022/11/07 09:18:04;;;;;;;5.62;2.83;;;;;;;15.06;63.75;100368.38;4333877;33;33040;-90
2022/11/07 09:20:33;;;;;;;1.98;1.87;;;;;;;15.13;63.70;100368.91;4343310;33;33592;-90
2022/11/07 09:23:22;;;;;;;3.22;1.98;;;;;;;15.21;63.77;100368.50;4332629;33;33248;-90
2022/11/07 09:25:52;;;;;;;4.25;2.00;;;;;;;15.16;63.90;100375.87;4321449;33;33117;-91
2022/11/07 09:28:21;;;;;;;2.12;1.92;;;;;;;15.28;63.75;100373.41;4343437;33;33292;-91
2022/11/07 09:30:56;;;;;;;1.48;1.10;;;;;;;15.44;63.56;100373.44;4345264;33;33879;-90
2022/11/07 09:33:33;;;;;;;1.15;1.10;;;;;;;15.32;63.41;100369.63;4343667;33;34758;-87
2022/11/07 09:36:04;;;;;;;6.47;2.28;;;;;;;15.28;63.23;100361.91;4341659;32;34824;-87
2022/11/07 09:38:39;;;;;;;5.28;1.87;;;;;;;15.46;62.87;100373.34;4344056;33;33387;-87
2022/11/07 09:41:34;;;;;;;4.10;2.92;;;;;;;15.21;62.86;100374.69;4341955;33;31992;-87
2022/11/07 09:44:11;;;;;;;1.67;1.12;;;;;;;15.21;63.60;100381.81;4342443;33;34477;-87
2022/11/07 09:46:56;;;;;;;0.98;0.95;;;;;;;15.46;63.03;100374.22;4344189;33;33192;-87
2022/11/07 09:49:46;;;;;;;2.53;1.37;;;;;;;15.50;63.40;100370.44;4344972;33;33106;-87
2022/11/07 09:52:36;;;;;;;2.08;1.83;;;;;;;15.69;62.86;100366.78;4342355;33;33627;-87
2022/11/07 09:55:17;;;;;;;7.35;2.25;;;;;;;15.61;62.53;100364.50;4342442;33;34140;-87
2022/11/07 09:57:47;;;;;;;2.45;2.03;;;;;;;15.58;62.30;100365.56;4344523;33;34641;-87
2022/11/07 10:00:18;;;;;;;0.45;0.45;;;;;;;15.49;62.62;100365.22;4342699;33;33644;-87
2022/11/07 10:02:56;;;;;;;0.93;0.87;;;;;;;15.33;62.94;100368.72;4344670;33;33888;-87
2022/11/07 10:05:49;;;;;;;1.70;1.60;;;;;;;15.24;63.20;100363.00;4343274;33;33558;-87
2022/11/07 10:08:59;;;;;;;1.58;1.48;;;;;;;15.16;63.58;100362.59;4343458;33;34109;-87
2022/11/07 10:11:33;;;;;;;2.53;1.87;;;;;;;15.24;63.30;100365.66;4336121;33;34322;-87
2022/11/07 10:14:33;;;;;;;2.05;1.92;;;;;;;15.21;63.99;100372.03;4342424;33;33403;-87
2022/11/07 10:17:15;;;;;;;2.03;1.92;;;;;;;15.34;63.71;100369.56;4344101;33;33511;-87
2022/11/07 10:20:04;;;;;;;1.27;1.17;;;;;;;15.31;63.29;100362.59;4343493;33;34078;-87
2022/11/07 10:22:52;;;;;;;5.43;1.33;;;;;;;15.14;64.17;100359.13;4344154;33;34074;-87
2022/11/07 10:25:26;;;;;;;2.62;2.33;;;;;;;15.22;64.07;100356.91;4343229;33;32410;-87
2022/11/07 10:30:47;;;;;;;1.10;1.00;;;;;;;14.90;65.51;100367.47;4342707;33;33495;-87
2022/11/07 10:33:39;;;;;;;2.35;1.08;;;;;;;15.03;65.07;100357.91;4336951;33;33567;-87
2022/11/07 10:36:17;;;;;;;1.12;1.05;;;;;;;15.15;64.61;100359.06;4345312;33;34520;-87
2022/11/07 10:41:27;;;;;;;1.77;0.95;;;;;;;15.15;64.25;100347.56;4339747;33;33112;-87
2022/11/07 10:43:59;;;;;;;2.03;1.83;;;;;;;15.08;64.50;100355.84;4338814;33;33972;-87
2022/11/07 10:46:41;;;;;;;2.97;2.58;;;;;;;15.20;64.01;100353.50;4320138;33;32300;-87
2022/11/07 10:49:20;;;;;;;4.28;1.98;;;;;;;15.28;63.41;100351.25;4341435;33;34203;-87
2022/11/07 10:51:50;;;;;;;0.90;0.90;;;;;;;15.22;63.68;100348.94;4338017;33;34903;-87
2022/11/07 10:54:18;;;;;;;2.42;1.90;;;;;;;15.37;63.37;100348.09;4338219;32;32481;-87
2022/11/07 10:57:21;;;;;;;2.92;1.77;;;;;;;15.26;64.71;100337.19;4344616;32;33097;-87
2022/11/07 11:02:46;;;;;;;1.60;1.50;;;;;;;15.56;63.05;100327.50;4334044;33;33414;-87
2022/11/07 11:05:24;;;;;;;2.55;1.23;;;;;;;15.46;63.85;100334.28;4341701;33;33080;-87
2022/11/07 11:08:06;;;;;;;2.15;1.37;;;;;;;15.40;64.36;100329.31;4334108;33;32361;-87
2022/11/07 11:10:38;;;;;;;1.95;1.67;;;;;;;15.55;64.00;100328.44;4339080;33;33950;-87
2022/11/07 11:13:06;;;;;;;1.95;1.62;;;;;;;15.60;63.36;100322.88;4321150;33;33351;-87
2022/11/07 11:15:46;;;;;;;1.23;1.12;;;;;;;15.45;64.03;100313.94;4326783;33;33560;-87
2022/11/07 11:18:16;;;;;;;1.77;1.67;;;;;;;15.64;63.34;100311.16;4326577;33;33016;-86
2022/11/07 11:21:00;;;;;;;0.40;0.40;;;;;;;15.47;63.14;100309.38;4342139;33;33536;-86
2022/11/07 11:23:34;;;;;;;0.98;0.80;;;;;;;15.22;63.66;100314.34;4340323;33;33629;-87
2022/11/07 11:26:15;;;;;;;3.15;1.33;;;;;;;15.33;63.47;100303.97;4332886;33;33974;-86
2022/11/07 11:28:56;;;;;;;4.03;2.33;;;;;;;15.35;63.03;100307.44;4333348;33;31680;-86
2022/11/07 11:31:32;;;;;;;1.73;1.17;;;;;;;15.29;63.10;100307.78;4334850;33;35463;-86
2022/11/07 11:34:35;;;;;;;1.85;1.75;;;;;;;15.27;63.16;100301.66;4340136;33;34280;-86
2022/11/07 11:37:13;;;;;;;0.28;0.28;;;;;;;15.41;62.92;100312.41;4339508;33;34398;-86
2022/11/07 11:39:54;;;;;;;2.70;1.87;;;;;;;15.36;63.63;100306.47;4342262;33;34009;-86
2022/11/07 11:42:48;;;;;;;1.20;1.15;;;;;;;15.33;63.95;100296.88;4336147;33;33548;-86
2022/11/07 11:45:25;;;;;;;2.50;2.10;;;;;;;15.37;63.73;100297.53;4341030;33;32991;-86
2022/11/07 11:48:11;;;;;;;6.22;2.20;;;;;;;15.69;62.85;100297.56;4342565;33;33860;-86
2022/11/07 11:50:48;;;;;;;3.03;2.22;;;;;;;15.49;64.10;100311.97;4342319;33;31905;-87
2022/11/07 11:53:24;;;;;;;1.62;1.52;;;;;;;15.34;64.89;100305.72;4341714;33;34680;-87
2022/11/07 11:56:26;;;;;;;0.65;0.65;;;;;;;15.60;63.55;100307.75;4342608;33;32992;-87
2022/11/07 11:59:16;;;;;;;;;;;;;;;15.34;63.61;100303.06;4343390;33;34459;-86
2022/11/07 12:02:29;;;;;;;1.27;1.05;;;;;;;15.30;64.22;100309.47;4344785;33;33675;-86
2022/11/07 12:05:22;;;;;;;1.15;1.05;;;;;;;15.23;64.25;100295.63;4343377;33;34570;-87
2022/11/07 12:08:20;;;;;;;1.80;1.65;;;;;;;15.40;63.25;100292.06;4345122;33;33926;-86